Time;durP1;ratioP1;P1;durP2;ratioP2;P2;SDS_P1;SDS_P2;PMS_P1;PMS_P2;Temp;Humidity;BMP_temperature;BMP_pressure;BME280_temperature;BME280_humidity;BME280_pressure;Samples;Min_cycle;Max_cycle;Signal;HPM_P1;HPM_P2
2024/01/21 00:01:29;;;;;;;;;14.40;14.00;;;;;5.73;100.00;100085.63;6183772;28;96387;-53
2024/01/21 00:04:32;;;;;;;;;16.00;13.00;;;;;5.65;100.00;100082.94;6184213;28;96283;-53
2024/01/21 00:07:38;;;;;;;;;15.00;13.00;;;;;5.55;100.00;100088.41;6249451;27;96674;-53
2024/01/21 00:10:42;;;;;;;;;18.60;16.60;;;;;5.62;100.00;100089.41;6185448;28;96974;-53
2024/01/21 00:13:45;;;;;;;;;14.33;13.33;;;;;5.64;100.00;100082.09;6189798;28;96815;-53
2024/01/21 00:16:49;;;;;;;;;14.50;12.50;;;;;5.61;100.00;100102.97;6183799;28;96469;-53
2024/01/21 00:19:52;;;;;;;;;16.25;14.25;;;;;5.57;100.00;100088.25;6192020;28;96891;-53
2024/01/21 00:22:56;;;;;;;;;15.20;13.80;;;;;5.59;100.00;100111.16;6208414;28;97023;-53
2024/01/21 00:26:00;;;;;;;;;14.60;13.60;;;;;5.54;100.00;100099.25;6208783;28;96898;-53
2024/01/21 00:29:03;;;;;;;;;16.00;14.20;;;;;5.61;100.00;100113.69;6208579;28;96274;-53
2024/01/21 00:32:06;;;;;;;;;14.25;14.00;;;;;5.62;100.00;100124.19;6208051;28;96690;-53
2024/01/21 00:35:09;;;;;;;;;18.00;17.00;;;;;5.57;100.00;100110.47;6208184;28;96391;-53
2024/01/21 00:38:14;;;;;;;;;19.40;16.00;;;;;5.50;100.00;100109.44;6195479;28;96201;-53
2024/01/21 00:41:17;;;;;;;;;17.40;16.40;;;;;5.46;100.00;100107.25;6207765;28;96385;-53
2024/01/21 00:44:21;;;;;;;;;13.60;12.60;;;;;5.33;100.00;100122.84;6208280;28;96362;-53
2024/01/21 00:47:24;;;;;;;;;15.00;13.25;;;;;5.34;100.00;100121.88;6207892;28;96274;-53
2024/01/21 00:50:27;;;;;;;;;16.00;15.00;;;;;5.44;100.00;100134.13;6208005;28;96454;-53
2024/01/21 00:53:32;;;;;;;;;17.60;16.00;;;;;5.46;100.00;100136.66;6208160;28;96266;-53
2024/01/21 00:56:35;;;;;;;;;17.00;16.00;;;;;5.44;100.00;100141.31;6275570;27;96978;-53
2024/01/21 00:59:38;;;;;;;;;18.00;16.75;;;;;5.35;100.00;100137.78;6207589;28;96387;-53
2024/01/21 01:02:41;;;;;;;;;17.00;15.50;;;;;5.45;100.00;100159.91;6199305;28;97511;-53
2024/01/21 01:05:44;;;;;;;;;18.60;17.40;;;;;5.33;100.00;100155.78;6267044;27;96296;-53
2024/01/21 01:08:49;;;;;;;;;19.00;16.60;;;;;5.31;100.00;100156.97;6184616;28;96708;-53
2024/01/21 01:11:52;;;;;;;;;16.00;14.00;;;;;5.27;100.00;100159.13;6184432;28;97043;-53
2024/01/21 01:14:55;;;;;;;;;17.60;16.80;;;;;5.18;100.00;100155.53;6187796;28;96308;-53
2024/01/21 01:17:58;;;;;;;;;22.00;18.00;;;;;5.15;100.00;100163.03;6189116;28;96526;-53
2024/01/21 01:21:01;;;;;;;;;18.80;18.20;;;;;5.07;100.00;100162.97;6256932;27;96473;-53
2024/01/21 01:24:07;;;;;;;;;17.00;14.00;;;;;5.06;100.00;100162.13;6189087;28;96306;-53
2024/01/21 01:27:10;;;;;;;;;17.60;15.00;;;;;5.10;100.00;100163.50;6196832;28;96419;-53
2024/01/21 01:30:14;;;;;;;;;18.60;17.40;;;;;5.18;100.00;100160.06;6189941;28;96359;-54
2024/01/21 01:33:17;;;;;;;;;20.50;18.75;;;;;5.19;100.00;100162.56;6187537;28;96955;-54
2024/01/21 01:36:20;;;;;;;;;20.80;17.00;;;;;5.29;100.00;100166.97;6187238;28;96230;-54
2024/01/21 01:39:25;;;;;;;;;16.80;15.20;;;;;5.23;100.00;100155.91;6187604;28;96310;-54
2024/01/21 01:42:28;;;;;;;;;16.25;15.25;;;;;5.17;100.00;100155.69;6186901;28;96364;-54
2024/01/21 01:45:31;;;;;;;;;18.00;15.80;;;;;5.08;100.00;100152.09;6187084;28;96393;-54
2024/01/21 01:48:34;;;;;;;;;17.40;16.00;;;;;5.12;100.00;100158.84;6187064;28;96377;-54
2024/01/21 01:51:38;;;;;;;;;16.50;14.00;;;;;5.10;100.00;100158.16;6191507;27;96438;-54
2024/01/21 01:54:45;;;;;;;;;17.60;17.00;;;;;5.18;100.00;100154.72;6279105;27;96242;-54
2024/01/21 01:57:49;;;;;;;;;17.60;15.00;;;;;5.20;100.00;100158.91;6188628;27;97001;-54
2024/01/21 02:00:53;;;;;;;;;17.40;17.00;;;;;5.23;100.00;100161.25;6187109;28;96781;-54
2024/01/21 02:03:57;;;;;;;;;16.40;13.60;;;;;5.27;100.00;100166.31;6270392;22;96544;-54
2024/01/21 02:07:01;;;;;;;;;19.00;16.00;;;;;5.18;100.00;100131.47;6291060;27;96277;-54
2024/01/21 02:10:06;;;;;;;;;20.00;18.00;;;;;5.33;100.00;100182.53;6291000;27;97022;-54
2024/01/21 02:13:09;;;;;;;;;20.75;18.50;;;;;5.47;100.00;100178.47;6290977;27;96351;-54
2024/01/21 02:16:13;;;;;;;;;21.40;19.00;;;;;5.57;100.00;100187.22;6289940;27;96868;-54
2024/01/21 02:19:27;;;;;;;;;18.20;17.60;;;;;5.58;100.00;100183.53;6291046;27;96214;-54
2024/01/21 02:22:31;;;;;;;;;15.50;14.00;;;;;5.67;100.00;100201.31;6291111;27;96488;-54
2024/01/21 02:25:36;;;;;;;;;16.25;14.25;;;;;5.61;100.00;100197.47;6289621;27;96615;-54
2024/01/21 02:28:39;;;;;;;;;16.00;15.75;;;;;5.70;100.00;100197.50;6290463;27;96373;-54
2024/01/21 02:31:42;;;;;;;;;17.20;15.20;;;;;5.69;100.00;100191.31;6272151;27;96436;-54
2024/01/21 02:34:45;;;;;;;;;15.00;14.00;;;;;5.69;100.00;100191.31;6289523;27;97363;-54
2024/01/21 02:37:48;;;;;;;;;19.00;18.00;;;;;5.62;100.00;100192.91;6289859;27;96918;-54
2024/01/21 02:40:53;;;;;;;;;18.00;17.60;;;;;5.75;100.00;100196.03;6277426;27;96288;-53
2024/01/21 02:43:56;;;;;;;;;18.50;16.75;;;;;5.82;100.00;100191.69;6290457;27;96463;-53
2024/01/21 02:46:59;;;;;;;;;16.00;15.00;;;;;5.81;100.00;100195.41;6290403;27;96272;-53
2024/01/21 02:50:02;;;;;;;;;16.00;15.00;;;;;5.80;100.00;100206.25;6279054;27;96324;-53
2024/01/21 02:53:05;;;;;;;;;19.00;16.40;;;;;5.79;100.00;100210.75;6265551;27;96316;-53
2024/01/21 02:56:19;;;;;;;;;22.00;19.00;;;;;5.83;100.00;100209.44;6265389;27;96449;-53
2024/01/21 02:59:22;;;;;;;;;19.00;17.50;;;;;5.94;100.00;100213.72;6280374;27;96898;-53
2024/01/21 03:02:26;;;;;;;;;19.50;17.50;;;;;6.04;100.00;100214.44;6289872;27;96311;-53
2024/01/21 03:05:29;;;;;;;;;18.60;16.60;;;;;6.05;100.00;100218.78;6289813;27;96341;-53
2024/01/21 03:08:32;;;;;;;;;17.80;16.20;;;;;6.18;100.00;100216.50;6289918;27;96295;-53
2024/01/21 03:11:38;;;;;;;;;17.40;15.80;;;;;6.12;100.00;100221.66;6290615;27;96617;-53
2024/01/21 03:14:41;;;;;;;;;19.00;17.00;;;;;6.18;100.00;100212.97;6290230;27;96290;-53
2024/01/21 03:17:44;;;;;;;;;17.00;16.00;;;;;6.10;100.00;100205.75;6289916;27;96326;-53
2024/01/21 03:20:47;;;;;;;;;18.00;16.00;;;;;6.09;100.00;100206.75;6290192;27;96370;-53
2024/01/21 03:23:50;;;;;;;;;16.75;15.75;;;;;6.26;100.00;100221.03;6271886;27;99356;-53
2024/01/21 03:26:55;;;;;;;;;18.00;15.00;;;;;6.31;100.00;100224.06;6264525;27;96280;-53
2024/01/21 03:29:58;;;;;;;;;20.00;18.25;;;;;6.31;100.00;100224.06;6266392;27;96332;-53
2024/01/21 03:33:01;;;;;;;;;19.75;18.75;;;;;6.42;100.00;100232.66;6288688;27;96349;-53
2024/01/21 03:36:05;;;;;;;;;15.20;15.00;;;;;6.33;100.00;100227.44;6288939;27;96620;-53
2024/01/21 03:39:08;;;;;;;;;16.00;14.60;;;;;6.37;100.00;100226.09;6289556;27;96722;-53
2024/01/21 03:42:12;;;;;;;;;19.00;17.00;;;;;6.43;100.00;100217.44;6289550;27;96495;-53
2024/01/21 03:45:16;;;;;;;;;18.00;15.00;;;;;6.45;100.00;100218.94;6287696;27;96750;-54
2024/01/21 03:48:19;;;;;;;;;20.00;18.40;;;;;6.50;100.00;100227.31;6265218;27;96220;-53
2024/01/21 03:51:22;;;;;;;;;19.00;17.00;;;;;6.51;100.00;100223.66;6268193;27;96390;-54
2024/01/21 03:54:25;;;;;;;;;18.60;17.40;;;;;6.59;100.00;100230.88;6273385;27;96410;-54
2024/01/21 03:57:30;;;;;;;;;19.00;17.00;;;;;6.59;100.00;100222.84;6296903;27;96298;-54
2024/01/21 04:00:33;;;;;;;;;17.80;15.40;;;;;6.56;100.00;100225.84;6295960;27;96543;-55
2024/01/21 04:03:36;;;;;;;;;17.33;16.00;;;;;6.54;100.00;100225.19;6297473;27;96794;-54
2024/01/21 04:06:41;;;;;;;;;18.00;16.25;;;;;6.44;100.00;100224.47;6298582;27;96345;-55
2024/01/21 04:09:44;;;;;;;;;19.00;16.40;;;;;6.47;100.00;100229.50;6298474;27;96347;-54
2024/01/21 04:12:49;;;;;;;;;16.25;16.00;;;;;6.46;100.00;100228.66;6298878;27;96304;-54
2024/01/21 04:15:52;;;;;;;;;19.00;16.00;;;;;6.45;100.00;100226.97;6299205;27;96411;-54
2024/01/21 04:18:55;;;;;;;;;16.80;16.80;;;;;6.40;100.00;100228.47;6298822;27;96288;-55
2024/01/21 04:21:59;;;;;;;;;21.25;19.25;;;;;6.29;100.00;100226.09;6298202;27;96462;-54
2024/01/21 04:25:04;;;;;;;;;19.00;16.20;;;;;6.29;100.00;100231.44;6294498;27;98227;-54
2024/01/21 04:28:08;;;;;;;;;21.00;17.00;;;;;6.30;100.00;100225.09;6280471;27;96376;-54
2024/01/21 04:31:11;;;;;;;;;18.00;16.25;;;;;6.35;100.00;100238.84;6298484;27;97044;-54
2024/01/21 04:34:15;;;;;;;;;20.00;16.60;;;;;6.33;100.00;100236.31;6298367;27;96373;-54
2024/01/21 04:37:18;;;;;;;;;17.00;17.00;;;;;6.37;100.00;100234.16;6298520;27;96406;-54
2024/01/21 04:40:21;;;;;;;;;19.00;18.00;;;;;6.43;100.00;100252.25;6298563;27;96218;-54
2024/01/21 04:43:26;;;;;;;;;19.80;17.80;;;;;6.37;100.00;100244.84;6298741;27;96361;-54
2024/01/21 04:46:29;;;;;;;;;21.00;19.40;;;;;6.30;100.00;100243.84;6297390;27;96418;-54
2024/01/21 04:49:32;;;;;;;;;19.60;18.00;;;;;6.34;100.00;100247.88;6300413;27;96511;-54
2024/01/21 04:52:35;;;;;;;;;17.50;13.50;;;;;6.37;100.00;100245.69;6300845;27;97695;-54
2024/01/21 04:55:38;;;;;;;;;16.80;16.00;;;;;6.46;100.00;100254.59;6299705;27;96889;-55
2024/01/21 04:58:43;;;;;;;;;20.25;17.25;;;;;6.52;100.00;100253.97;6298674;27;96297;-54
2024/01/21 05:01:49;;;;;;;;;18.40;16.00;;;;;6.57;100.00;100257.00;6287683;27;96747;-54
2024/01/21 05:04:52;;;;;;;;;21.00;17.00;;;;;6.58;100.00;100258.69;6290263;27;97112;-55
2024/01/21 05:07:55;;;;;;;;;19.00;17.50;;;;;6.59;100.00;100262.19;6290677;27;96242;-54
2024/01/21 05:10:58;;;;;;;;;18.50;17.00;;;;;6.61;100.00;100261.03;6290974;27;96310;-54
2024/01/21 05:14:03;;;;;;;;;18.00;16.00;;;;;6.64;100.00;100267.91;6291178;27;96588;-54
2024/01/21 05:17:06;;;;;;;;;19.00;17.50;;;;;6.61;100.00;100277.09;6289273;27;96601;-54
2024/01/21 05:20:11;;;;;;;;;19.60;18.60;;;;;6.64;100.00;100278.63;6289932;27;96271;-54
2024/01/21 05:23:14;;;;;;;;;18.00;17.00;;;;;6.61;100.00;100287.81;6289265;27;96290;-54
2024/01/21 05:26:17;;;;;;;;;22.00;18.40;;;;;6.65;100.00;100280.28;6288367;27;96266;-55
2024/01/21 05:29:22;;;;;;;;;21.33;18.00;;;;;6.60;100.00;100267.38;6290217;27;96533;-54
2024/01/21 05:32:25;;;;;;;;;21.00;18.00;;;;;6.72;100.00;100294.72;6286424;27;96480;-55
2024/01/21 05:35:28;;;;;;;;;21.25;21.25;;;;;6.71;100.00;100293.03;6287805;27;96870;-54
2024/01/21 05:38:31;;;;;;;;;21.00;18.00;;;;;6.71;100.00;100291.19;6287158;27;97202;-55
2024/01/21 05:41:35;;;;;;;;;23.00;19.00;;;;;6.72;100.00;100297.41;6291140;27;96292;-55
2024/01/21 05:44:39;;;;;;;;;24.00;20.60;;;;;6.68;100.00;100283.50;6289393;27;96358;-55
2024/01/21 05:47:42;;;;;;;;;18.80;16.00;;;;;6.61;100.00;100278.94;6273604;27;96310;-55
2024/01/21 05:50:45;;;;;;;;;21.25;19.25;;;;;6.66;100.00;100280.13;6265093;27;96375;-54
2024/01/21 05:53:48;;;;;;;;;20.60;19.60;;;;;6.68;100.00;100283.50;6272498;27;96470;-55
2024/01/21 05:56:51;;;;;;;;;21.00;19.00;;;;;6.73;100.00;100286.53;6266533;27;97447;-55
2024/01/21 05:59:56;;;;;;;;;22.40;22.00;;;;;6.78;100.00;100284.19;6245317;27;96425;-55
2024/01/21 06:02:59;;;;;;;;;22.00;21.00;;;;;6.79;100.00;100285.03;6263345;27;96366;-55
2024/01/21 06:06:03;;;;;;;;;21.00;18.00;;;;;6.80;100.00;100286.69;6264066;27;96350;-55
2024/01/21 06:09:06;;;;;;;;;20.00;19.20;;;;;6.78;100.00;100280.69;6266634;27;96870;-54
2024/01/21 06:12:09;;;;;;;;;26.20;20.20;;;;;6.83;100.00;100281.88;6271058;27;96474;-54
2024/01/21 06:15:14;;;;;;;;;21.20;18.80;;;;;6.83;100.00;100287.22;6285365;27;96278;-55
2024/01/21 06:18:17;;;;;;;;;21.20;19.40;;;;;6.84;100.00;100285.38;6265539;27;96420;-55
2024/01/21 06:21:20;;;;;;;;;21.00;18.40;;;;;6.82;100.00;100274.81;6265916;27;96324;-54
2024/01/21 06:24:24;;;;;;;;;24.00;20.50;;;;;6.79;100.00;100277.81;6265494;27;96333;-54
2024/01/21 06:27:27;;;;;;;;;26.75;20.75;;;;;6.87;100.00;100282.38;6270070;27;96610;-55
2024/01/21 06:30:31;;;;;;;;;22.40;20.40;;;;;6.87;100.00;100280.53;6287058;27;96348;-54
2024/01/21 06:33:35;;;;;;;;;23.67;22.00;;;;;6.90;100.00;100280.19;6265591;27;96449;-55
2024/01/21 06:36:38;;;;;;;;;25.00;23.20;;;;;6.92;100.00;100275.53;6268929;27;96585;-55
2024/01/21 06:39:41;;;;;;;;;22.00;19.40;;;;;6.94;100.00;100275.34;6264780;27;96375;-55
2024/01/21 06:42:49;;;;;;;;;23.00;20.60;;;;;6.94;100.00;100281.53;6269823;27;97488;-55
2024/01/21 06:45:54;;;;;;;;;23.75;21.25;;;;;6.92;100.00;100283.56;6277302;27;96449;-55
2024/01/21 06:48:57;;;;;;;;;23.00;21.00;;;;;6.92;100.00;100275.53;6268794;27;96379;-54
2024/01/21 06:52:01;;;;;;;;;23.75;22.00;;;;;6.93;100.00;100276.38;6271103;27;96627;-55
2024/01/21 06:55:06;;;;;;;;;19.80;18.80;;;;;6.93;100.00;100269.16;6281776;27;96310;-55
2024/01/21 06:58:09;;;;;;;;;20.80;20.00;;;;;6.93;100.00;100285.25;6276353;27;96831;-55
2024/01/21 07:01:14;;;;;;;;;20.40;19.00;;;;;6.94;100.00;100278.84;6285234;27;96379;-55
2024/01/21 07:04:18;;;;;;;;;23.20;20.00;;;;;6.94;100.00;100284.22;6281472;27;96457;-55
2024/01/21 07:07:21;;;;;;;;;23.00;22.00;;;;;6.97;100.00;100281.22;6287294;27;96369;-54
2024/01/21 07:10:24;;;;;;;;;19.00;18.00;;;;;7.03;100.00;100285.09;6284821;27;96355;-55
2024/01/21 07:13:27;;;;;;;;;22.00;19.20;;;;;7.06;100.00;100290.13;6289957;27;96451;-55
2024/01/21 07:16:32;;;;;;;;;22.80;19.20;;;;;7.10;100.00;100293.31;6287649;27;96343;-55
2024/01/21 07:19:35;;;;;;;;;21.60;20.00;;;;;7.14;100.00;100287.44;6269751;27;97238;-55
2024/01/21 07:22:38;;;;;;;;;24.20;21.00;;;;;7.16;100.00;100298.84;6284326;27;96774;-56
2024/01/21 07:25:42;;;;;;;;;22.20;19.80;;;;;7.19;100.00;100295.81;6274143;27;98502;-56
2024/01/21 07:28:45;;;;;;;;;23.80;22.00;;;;;7.24;100.00;100301.53;6263514;27;98785;-56
2024/01/21 07:31:50;;;;;;;;;24.00;22.00;;;;;7.30;100.00;100306.25;6291606;27;96508;-55
2024/01/21 07:34:53;;;;;;;;;26.00;23.00;;;;;7.36;100.00;100292.16;6294298;27;97049;-56
2024/01/21 07:37:56;;;;;;;;;24.60;21.60;;;;;7.32;100.00;100266.69;6273446;27;96334;-56
2024/01/21 07:40:59;;;;;;;;;24.00;23.00;;;;;7.52;100.00;100294.03;6287088;27;96967;-56
2024/01/21 07:44:02;;;;;;;;;22.20;21.20;;;;;7.58;98.33;100287.97;6290631;27;96280;-56
2024/01/21 07:47:07;;;;;;;;;22.80;20.20;;;;;7.65;97.65;100288.97;6282780;27;96350;-56
2024/01/21 07:50:11;;;;;;;;;23.00;21.00;;;;;7.71;96.88;100290.16;6265683;27;97100;-56
2024/01/21 07:53:14;;;;;;;;;25.50;21.50;;;;;7.77;96.63;100292.97;6271132;27;96323;-56
2024/01/21 07:56:17;;;;;;;;;24.60;22.60;;;;;7.82;96.82;100296.00;6275088;27;96882;-55
2024/01/21 07:59:20;;;;;;;;;26.00;24.00;;;;;7.82;95.74;100265.63;6290366;27;96364;-56
2024/01/21 08:02:27;;;;;;;;;24.40;22.00;;;;;8.02;95.23;100288.41;6279545;27;96716;-55
2024/01/21 08:05:32;;;;;;;;;24.40;21.60;;;;;8.10;95.71;100292.94;6299606;27;96402;-56
2024/01/21 08:08:36;;;;;;;;;23.00;21.50;;;;;8.21;96.23;100292.56;6297717;27;96078;-55
2024/01/21 08:11:39;;;;;;;;;23.20;22.20;;;;;8.34;94.15;100287.53;6298512;27;96315;-56
2024/01/21 08:14:43;;;;;;;;;21.00;20.00;;;;;8.45;92.62;100305.13;6293372;27;96303;-56
2024/01/21 08:17:47;;;;;;;;;26.00;23.00;;;;;8.49;92.03;100303.78;6305769;27;96244;-56
2024/01/21 08:20:50;;;;;;;;;23.00;20.60;;;;;8.51;92.26;100296.34;6299372;27;96121;-56
2024/01/21 08:23:53;;;;;;;;;21.40;21.20;;;;;8.52;92.06;100303.41;6282455;27;96455;-55
2024/01/21 08:26:58;;;;;;;;;22.60;22.00;;;;;8.57;91.25;100306.41;6275966;27;97074;-55
2024/01/21 08:30:02;;;;;;;;;22.00;20.00;;;;;8.67;90.85;100301.66;6281585;27;98335;-55
2024/01/21 08:33:07;;;;;;;;;22.00;21.00;;;;;8.80;90.39;100301.94;6293776;27;96471;-56
2024/01/21 08:36:11;;;;;;;;;20.50;18.50;;;;;8.99;89.77;100312.25;6279559;27;96332;-55
2024/01/21 08:39:14;;;;;;;;;23.25;21.25;;;;;9.04;89.14;100274.91;6281039;27;97428;-55
2024/01/21 08:42:19;;;;;;;;;22.00;19.00;;;;;9.62;86.88;100307.63;6291262;27;96322;-56
2024/01/21 08:45:22;;;;;;;;;23.40;20.20;;;;;10.18;83.40;100311.66;6282974;27;96910;-55
2024/01/21 08:48:27;;;;;;;;;23.25;20.00;;;;;10.77;80.52;100313.34;6287440;27;96369;-56
2024/01/21 08:51:33;;;;;;;;;21.00;19.00;;;;;11.34;77.00;100317.13;6286261;27;96375;-55
2024/01/21 08:54:36;;;;;;;;;26.33;25.67;;;;;11.86;75.06;100319.50;6280257;27;96849;-55
2024/01/21 08:57:39;;;;;;;;;19.00;18.00;;;;;12.33;72.77;100322.34;6287624;27;96799;-55
2024/01/21 09:00:43;;;;;;;;;22.00;19.00;;;;;12.62;70.38;100325.84;6284126;27;96615;-55
2024/01/21 09:03:47;;;;;;;;;20.00;18.60;;;;;12.71;69.19;100324.63;6289827;27;96557;-55
2024/01/21 09:06:51;;;;;;;;;18.00;17.00;;;;;12.68;67.75;100335.88;6287311;27;97542;-55
2024/01/21 09:09:54;;;;;;;;;17.00;16.00;;;;;12.58;68.16;100333.53;6280810;27;96523;-55
2024/01/21 09:12:57;;;;;;;;;18.00;18.00;;;;;12.47;68.47;100334.06;6291315;27;96243;-55
2024/01/21 09:16:00;;;;;;;;;20.00;18.00;;;;;12.32;68.80;100336.06;6286888;27;96531;-55
2024/01/21 09:19:05;;;;;;;;;20.40;18.00;;;;;12.23;68.62;100340.78;6285876;27;96710;-55
2024/01/21 09:22:09;;;;;;;;;19.40;17.40;;;;;12.18;70.25;100334.28;6288663;27;96610;-55
2024/01/21 09:25:16;;;;;;;;;20.20;18.20;;;;;12.19;71.00;100335.97;6280817;27;96631;-55
2024/01/21 09:28:19;;;;;;;;;20.00;17.25;;;;;12.10;70.43;100333.44;6285846;27;96331;-55
2024/01/21 09:31:22;;;;;;;;;20.40;17.00;;;;;12.02;70.42;100341.66;6284680;27;96272;-55
2024/01/21 09:34:27;;;;;;;;;21.00;18.40;;;;;11.89;71.87;100340.72;6281217;27;96889;-55
2024/01/21 09:37:30;;;;;;;;;22.00;19.60;;;;;11.85;71.94;100328.63;6286483;27;96687;-55
2024/01/21 09:40:33;;;;;;;;;20.60;20.00;;;;;11.80;70.92;100326.53;6283630;27;96951;-54
2024/01/21 09:43:42;;;;;;;;;22.75;20.00;;;;;11.80;71.40;100331.09;6284445;27;96262;-53
2024/01/21 09:46:50;;;;;;;;;20.80;19.60;;;;;11.81;71.86;100320.09;6287701;27;97002;-53
2024/01/21 09:49:56;;;;;;;;;21.50;20.50;;;;;11.87;72.41;100324.72;6282137;27;96353;-55
2024/01/21 09:53:00;;;;;;;;;20.75;18.00;;;;;11.94;71.35;100317.50;6283032;27;96518;-55
2024/01/21 09:56:07;;;;;;;;;20.00;18.00;;;;;12.01;70.87;100315.69;6278776;27;96305;-54
2024/01/21 09:59:11;;;;;;;;;21.20;18.20;;;;;12.09;70.58;100315.53;6278533;27;96595;-54
2024/01/21 10:02:17;;;;;;;;;19.80;19.00;;;;;12.18;69.78;100307.25;6278087;27;96366;-55
2024/01/21 10:05:21;;;;;;;;;20.00;14.60;;;;;12.32;69.11;100314.41;6288014;27;96504;-53
2024/01/21 10:08:24;;;;;;;;;18.40;17.40;;;;;12.42;69.78;100310.34;6277394;27;96455;-53
2024/01/21 10:11:27;;;;;;;;;19.00;17.60;;;;;12.50;68.99;100299.38;6282963;27;96489;-54
2024/01/21 10:14:31;;;;;;;;;17.00;16.00;;;;;12.77;68.56;100313.00;6280964;27;96589;-53
2024/01/21 10:17:35;;;;;;;;;15.20;14.20;;;;;13.03;67.75;100302.31;6280204;27;96544;-53
2024/01/21 10:20:40;;;;;;;;;18.00;16.40;;;;;13.42;66.92;100298.91;6277088;27;96378;-54
2024/01/21 10:23:43;;;;;;;;;20.00;19.00;;;;;13.72;64.53;100302.91;6257326;27;96577;-54
2024/01/21 10:26:47;;;;;;;;;18.00;16.00;;;;;14.07;63.33;100302.69;6281609;27;97537;-54
2024/01/21 10:29:50;;;;;;;;;20.80;18.00;;;;;14.31;62.49;100294.72;6276532;27;96797;-54
2024/01/21 10:32:54;;;;;;;;;20.00;17.00;;;;;14.62;61.58;100302.19;6275625;27;97160;-54
2024/01/21 10:36:02;;;;;;;;;18.25;17.25;;;;;14.71;60.92;100300.06;6276161;27;97214;-54
2024/01/21 10:39:08;;;;;;;;;16.60;15.60;;;;;14.80;59.15;100300.66;6273651;27;96972;-55
2024/01/21 10:42:13;;;;;;;;;19.60;17.60;;;;;14.78;58.00;100298.16;6278582;27;96373;-54
2024/01/21 10:45:16;;;;;;;;;20.00;19.00;;;;;14.83;58.34;100300.22;6271640;27;96973;-54
2024/01/21 10:48:21;;;;;;;;;19.20;18.00;;;;;15.14;57.68;100306.56;6273082;27;96400;-54
2024/01/21 10:51:26;;;;;;;;;20.00;19.00;;;;;15.55;55.97;100311.56;6282732;27;96419;-55
2024/01/21 10:54:29;;;;;;;;;21.00;19.60;;;;;15.65;55.16;100305.66;6281589;27;96923;-55
2024/01/21 10:57:35;;;;;;;;;17.40;15.00;;;;;16.15;54.90;100298.34;6283376;27;97722;-55
2024/01/21 11:00:39;;;;;;;;;22.20;18.80;;;;;16.65;53.01;100303.72;6281779;27;96296;-55
2024/01/21 11:03:44;;;;;;;;;22.00;21.00;;;;;17.52;52.39;100292.28;6274018;27;97070;-55
2024/01/21 11:06:51;;;;;;;;;22.00;20.00;;;;;18.75;48.09;100289.53;6280686;27;96414;-54
2024/01/21 11:09:55;;;;;;;;;20.80;18.80;;;;;20.08;45.29;100283.56;6277704;27;96972;-55
2024/01/21 11:12:58;;;;;;;;;22.00;19.00;;;;;21.21;41.99;100271.13;6278143;27;96555;-55
2024/01/21 11:16:01;;;;;;;;;22.40;19.40;;;;;22.65;39.97;100276.44;6276809;27;96415;-54
2024/01/21 11:19:06;;;;;;;;;21.00;19.60;;;;;24.56;37.05;100274.28;6282565;27;96554;-54
2024/01/21 11:22:12;;;;;;;;;22.00;20.60;;;;;25.96;34.08;100272.97;6280166;27;96297;-56
2024/01/21 11:25:33;;;;;;;;;25.25;23.00;;;;;27.38;31.33;100252.84;6276831;27;97198;-56
2024/01/21 11:28:36;;;;;;;;;24.20;23.00;;;;;29.00;28.99;100249.97;6280191;27;96821;-56
2024/01/21 11:31:40;;;;;;;;;24.50;23.00;;;;;30.31;28.09;100246.78;6272842;27;97840;-57
2024/01/21 11:34:45;;;;;;;;;24.00;21.00;;;;;31.52;26.80;100234.03;6269545;27;96735;-57
2024/01/21 11:37:52;;;;;;;;;23.00;22.60;;;;;32.02;25.09;100227.94;6276876;27;96433;-57
2024/01/21 11:41:03;;;;;;;;;27.50;25.50;;;;;32.61;25.56;100226.94;6264502;27;96545;-56
2024/01/21 11:44:11;;;;;;;;;30.00;26.60;;;;;33.26;24.28;100219.19;6268193;27;96668;-56
2024/01/21 11:47:15;;;;;;;;;27.40;25.00;;;;;33.75;23.94;100211.88;6276379;27;96520;-56
2024/01/21 11:50:19;;;;;;;;;29.00;26.40;;;;;33.76;23.13;100200.34;6275713;27;96303;-57
2024/01/21 11:53:24;;;;;;;;;29.00;26.75;;;;;33.60;22.71;100204.09;6275155;27;96986;-56
2024/01/21 11:56:27;;;;;;;;;27.60;27.00;;;;;33.88;22.84;100208.75;6284252;27;96220;-56
2024/01/21 11:59:31;;;;;;;;;30.40;28.60;;;;;34.00;23.21;100204.38;6275052;27;96608;-56
2024/01/21 12:02:35;;;;;;;;;30.20;28.00;;;;;33.82;22.95;100210.13;6283863;27;96239;-56
2024/01/21 12:05:42;;;;;;;;;30.25;29.00;;;;;33.92;22.84;100208.88;6273450;27;96478;-56
2024/01/21 12:08:48;;;;;;;;;28.00;24.00;;;;;33.75;23.00;100200.69;6274753;27;96797;-56
2024/01/21 12:11:52;;;;;;;;;31.00;28.00;;;;;33.66;23.18;100197.13;6257075;27;96683;-57
2024/01/21 12:14:55;;;;;;;;;30.20;29.00;;;;;33.75;23.07;100195.09;6277654;27;96597;-56
2024/01/21 12:18:00;;;;;;;;;36.75;31.75;;;;;33.55;22.96;100193.94;6277939;27;96486;-56
2024/01/21 12:21:04;;;;;;;;;34.25;30.00;;;;;33.14;22.62;100177.16;6275508;27;96795;-56
2024/01/21 12:24:09;;;;;;;;;30.40;28.40;;;;;32.65;22.82;100186.03;6280666;27;96632;-56
2024/01/21 12:27:13;;;;;;;;;33.00;30.00;;;;;32.41;23.57;100180.22;6260854;27;96485;-57
2024/01/21 12:30:17;;;;;;;;;31.00;27.80;;;;;32.14;24.00;100178.69;6283141;27;96386;-56
2024/01/21 12:33:20;;;;;;;;;29.60;29.40;;;;;31.35;24.26;100176.34;6282833;27;96556;-56
2024/01/21 12:36:24;;;;;;;;;34.00;30.00;;;;;31.17;24.86;100165.53;6285426;27;96363;-56
2024/01/21 12:39:29;;;;;;;;;34.00;30.00;;;;;30.98;24.75;100155.47;6273134;27;97579;-56
2024/01/21 12:42:32;;;;;;;;;33.00;30.00;;;;;30.72;24.99;100160.22;6272694;27;96310;-56
2024/01/21 12:45:35;;;;;;;;;31.00;28.00;;;;;30.10;25.44;100160.28;6277880;27;96640;-56
2024/01/21 12:48:38;;;;;;;;;30.20;29.00;;;;;28.69;25.82;100147.06;6286530;27;96242;-56
2024/01/21 12:51:44;;;;;;;;;33.00;29.40;;;;;27.60;27.39;100141.44;6286988;27;96466;-56
2024/01/21 12:54:48;;;;;;;;;28.00;27.00;;;;;26.26;28.87;100140.84;6281121;27;96479;-56
2024/01/21 12:57:51;;;;;;;;;29.75;27.75;;;;;25.06;29.94;100143.59;6285026;27;96176;-56
2024/01/21 13:00:55;;;;;;;;;29.60;26.80;;;;;23.94;31.39;100129.47;6282151;27;96702;-55
2024/01/21 13:03:58;;;;;;;;;30.40;28.00;;;;;22.81;32.88;100137.16;6272466;27;96522;-56
2024/01/21 13:07:14;;;;;;;;;31.50;27.50;;;;;21.95;34.76;100134.00;6285243;27;96705;-56
2024/01/21 13:10:18;;;;;;;;;28.50;26.50;;;;;20.91;36.12;100133.69;6271164;27;97647;-56
2024/01/21 13:13:21;;;;;;;;;28.00;26.25;;;;;19.71;38.08;100127.25;6271828;27;96393;-55
2024/01/21 13:16:25;;;;;;;;;33.50;28.00;;;;;18.82;40.59;100128.16;6287722;27;96726;-55
2024/01/21 13:19:28;;;;;;;;;32.00;26.67;;;;;18.54;42.17;100154.44;6283215;27;97271;-56
2024/01/21 13:22:32;;;;;;;;;30.00;28.40;;;;;18.48;42.61;100151.81;6267742;27;98532;-56
2024/01/21 13:25:37;;;;;;;;;28.00;26.00;;;;;18.21;43.07;100151.53;6262724;27;96638;-56
2024/01/21 13:30:43;;;;;;;;;27.20;26.00;;;;;17.79;43.96;100147.34;6281883;27;96266;-56
2024/01/21 13:32:03;;;;;;;;;32.00;28.50;;;;;17.46;45.48;100147.88;6285232;27;96634;-55
2024/01/21 13:35:08;;;;;;;;;31.80;25.40;;;;;17.35;45.92;100148.69;6287335;27;96441;-56
2024/01/21 13:38:15;;;;;;;;;28.20;26.20;;;;;16.98;46.60;100126.22;6287865;27;96360;-56
2024/01/21 13:41:19;;;;;;;;;30.00;27.60;;;;;16.95;47.33;100146.59;6287137;27;96904;-56
2024/01/21 13:44:23;;;;;;;;;31.00;27.40;;;;;16.88;48.02;100143.97;6280821;27;96733;-56
2024/01/21 13:47:26;;;;;;;;;30.50;25.00;;;;;16.69;48.59;100134.19;6283158;27;97048;-56
2024/01/21 13:50:30;;;;;;;;;27.60;24.60;;;;;16.02;50.18;100130.63;6284304;27;96471;-56
2024/01/21 13:53:33;;;;;;;;;25.00;24.00;;;;;15.50;51.80;100129.25;6285653;27;96262;-56
2024/01/21 13:56:38;;;;;;;;;24.00;23.00;;;;;15.23;53.72;100135.97;6281708;27;96470;-56